Aviation Digital Data Service (ADDS)

Output produced by METARs form (1549 UTC 17 October 2021)
found at http://aviationweather.gov/metar/data/
 
KVNY 171136Z 1712/1812 VRB03KT P6SM SKC 
     FM172000 15008KT P6SM SCT200 
     FM180500 VRB03KT P6SM SCT200 
     FM180900 VRB03KT P6SM OVC015